createdAt,value
2022-09-12T00:01:15.732Z,96881.55
2022-09-12T00:03:44.456Z,96883.46
2022-09-12T00:06:15.223Z,96884.09
2022-09-12T00:08:45.684Z,96886.18
2022-09-12T00:11:14.299Z,96884.04
2022-09-12T00:13:43.047Z,96881.79
2022-09-12T00:16:16.182Z,96880.95
2022-09-12T00:18:45.575Z,96880.66
2022-09-12T00:21:14.162Z,96879.59
2022-09-12T00:23:42.233Z,96875.44
2022-09-12T00:26:10.132Z,96875.95
2022-09-12T00:28:38.787Z,96872.88
2022-09-12T00:31:17.332Z,96872.36
2022-09-12T00:33:45.698Z,96872.94
2022-09-12T00:36:15.599Z,96874.96
2022-09-12T00:38:44.499Z,96869.06
2022-09-12T00:41:17.850Z,96868.27
2022-09-12T00:43:48.108Z,96872.34
2022-09-12T00:46:20.789Z,96866.37
2022-09-12T00:48:58.976Z,96865.74
2022-09-12T00:51:28.402Z,96868.40
2022-09-12T00:53:57.195Z,96871.27
2022-09-12T00:56:26.184Z,96867.15
2022-09-12T00:59:01.151Z,96868.64
2022-09-12T01:01:32.387Z,96867.45
2022-09-12T01:04:01.869Z,96867.92
2022-09-12T01:06:33.218Z,96870.42
2022-09-12T01:09:04.391Z,96872.90
2022-09-12T01:11:34.584Z,96873.27
2022-09-12T01:14:02.656Z,96874.54
2022-09-12T01:16:31.423Z,96871.89
2022-09-12T01:19:15.188Z,96870.13
2022-09-12T01:21:54.484Z,96873.73
2022-09-12T01:24:48.193Z,96876.20
2022-09-12T01:27:16.880Z,96877.73
2022-09-12T01:30:03.284Z,96880.43
2022-09-12T01:32:46.408Z,96881.42
2022-09-12T01:35:21.655Z,96881.24
2022-09-12T01:38:11.019Z,96883.55
2022-09-12T01:40:49.163Z,96884.83
2022-09-12T01:43:25.289Z,96884.89
2022-09-12T01:46:11.997Z,96885.63
2022-09-12T01:48:44.844Z,96885.07
2022-09-12T01:51:33.098Z,96881.75
2022-09-12T01:54:10.209Z,96881.73
2022-09-12T01:56:40.229Z,96881.27
2022-09-12T01:59:15.469Z,96877.92
2022-09-12T02:01:50.569Z,96877.70
2022-09-12T02:04:21.078Z,96875.38
2022-09-12T02:06:59.225Z,96871.33
2022-09-12T02:09:35.815Z,96872.08
2022-09-12T02:12:06.138Z,96871.02
2022-09-12T02:14:38.279Z,96869.78
2022-09-12T02:17:12.113Z,96870.73
2022-09-12T02:19:58.327Z,96871.42
2022-09-12T02:22:27.996Z,96868.52
2022-09-12T02:24:58.917Z,96870.52
2022-09-12T02:27:32.611Z,96868.90
2022-09-12T02:30:00.485Z,96874.51
2022-09-12T02:32:30.806Z,96880.07
2022-09-12T02:35:08.680Z,96882.77
2022-09-12T02:37:45.440Z,96882.04
2022-09-12T02:40:14.157Z,96883.61
2022-09-12T02:42:42.466Z,96881.98
2022-09-12T02:45:11.904Z,96881.21
2022-09-12T02:47:46.328Z,96886.49
2022-09-12T02:50:14.448Z,96888.61
2022-09-12T02:52:42.981Z,96890.08
2022-09-12T02:55:11.873Z,96893.21
2022-09-12T02:57:39.672Z,96892.91
2022-09-12T03:00:08.201Z,96896.11
2022-09-12T03:02:35.955Z,96892.99
2022-09-12T03:05:03.663Z,96893.31
2022-09-12T03:07:41.138Z,96895.28
2022-09-12T03:10:09.004Z,96897.68
2022-09-12T03:12:39.944Z,96904.96
2022-09-12T03:15:07.916Z,96910.39
2022-09-12T03:17:41.927Z,96920.65
2022-09-12T03:20:22.084Z,96922.91
2022-09-12T03:22:58.550Z,96923.04
2022-09-12T03:25:32.461Z,96925.72
2022-09-12T03:28:07.537Z,96923.08
2022-09-12T03:30:40.789Z,96926.88
2022-09-12T03:33:12.346Z,96929.10
2022-09-12T03:35:40.401Z,96929.24
2022-09-12T03:38:08.588Z,96927.23
2022-09-12T03:40:37.177Z,96931.73
2022-09-12T03:43:06.269Z,96939.86
2022-09-12T03:45:34.860Z,96942.57
2022-09-12T03:48:03.538Z,96944.63
2022-09-12T03:50:31.408Z,96946.38
2022-09-12T03:53:00.011Z,96950.73
2022-09-12T03:55:27.959Z,96954.86
2022-09-12T03:57:55.932Z,96956.66
2022-09-12T04:00:24.086Z,96956.11
2022-09-12T04:02:56.332Z,96954.01
2022-09-12T04:05:25.548Z,96953.88
2022-09-12T04:07:53.611Z,96952.79
2022-09-12T04:10:22.696Z,96956.09
2022-09-12T04:12:52.144Z,96961.20
2022-09-12T04:15:20.113Z,96964.23
2022-09-12T04:17:47.981Z,96963.88
2022-09-12T04:20:15.813Z,96970.64
2022-09-12T04:22:43.844Z,96977.55
2022-09-12T04:25:11.890Z,96978.83
2022-09-12T04:27:39.862Z,96978.18
2022-09-12T04:30:08.976Z,96979.98
2022-09-12T04:32:36.843Z,96979.07
2022-09-12T04:35:05.085Z,96979.13
2022-09-12T04:37:33.184Z,96980.80
2022-09-12T04:40:01.170Z,96981.22
2022-09-12T04:42:29.826Z,96979.76
2022-09-12T04:44:57.852Z,96984.75
2022-09-12T04:47:25.771Z,96988.35
2022-09-12T04:49:54.077Z,96985.54
2022-09-12T04:52:22.014Z,96981.89
2022-09-12T04:54:49.832Z,96984.64
2022-09-12T04:57:18.055Z,96988.92
2022-09-12T04:59:45.796Z,96988.95
2022-09-12T05:02:13.682Z,96991.52
2022-09-12T05:04:41.656Z,96995.83
2022-09-12T05:07:09.728Z,96994.00
2022-09-12T05:09:37.666Z,96994.25
2022-09-12T05:12:06.071Z,96997.54
2022-09-12T05:14:34.358Z,97005.41
2022-09-12T05:17:02.785Z,97009.63
2022-09-12T05:19:31.080Z,97013.23
2022-09-12T05:21:59.303Z,97016.33
2022-09-12T05:24:27.311Z,97014.30
2022-09-12T05:26:55.225Z,97014.98
2022-09-12T05:29:23.078Z,97016.64
2022-09-12T05:31:53.013Z,97011.15
2022-09-12T05:34:21.132Z,97008.30
2022-09-12T05:36:49.361Z,97010.64
2022-09-12T05:39:18.773Z,97017.02
2022-09-12T05:41:47.456Z,97019.29
2022-09-12T05:44:15.436Z,97021.89
2022-09-12T05:46:45.229Z,97023.25
2022-09-12T05:49:14.622Z,97025.27
2022-09-12T05:51:44.344Z,97020.61
2022-09-12T05:54:13.443Z,97017.17
2022-09-12T05:56:42.377Z,97019.33
2022-09-12T05:59:15.118Z,97021.17
2022-09-12T06:01:43.172Z,97023.48
2022-09-12T06:04:11.366Z,97021.98
2022-09-12T06:06:41.806Z,97021.61
2022-09-12T06:09:10.100Z,97019.66
2022-09-12T06:11:40.963Z,97015.36
2022-09-12T06:14:10.205Z,97012.04
2022-09-12T06:16:39.134Z,97017.26
2022-09-12T06:19:08.425Z,97014.21
2022-09-12T06:21:36.464Z,97013.90
2022-09-12T06:24:04.657Z,97012.41
2022-09-12T06:26:33.433Z,97009.96
2022-09-12T06:29:03.153Z,97009.45
2022-09-12T06:31:33.233Z,97007.02
2022-09-12T06:34:02.323Z,97013.17
2022-09-12T06:36:31.567Z,97020.72
2022-09-12T06:39:01.268Z,97018.42
2022-09-12T06:41:29.895Z,97021.11
2022-09-12T06:43:58.640Z,97016.20
2022-09-12T06:46:27.237Z,97020.14
2022-09-12T06:48:59.808Z,97022.67
2022-09-12T06:51:28.843Z,97025.09
2022-09-12T06:53:57.274Z,97019.60
2022-09-12T06:56:26.680Z,97020.02
2022-09-12T06:58:58.986Z,97024.72
2022-09-12T07:01:28.813Z,97026.89
2022-09-12T07:03:58.930Z,97024.23
2022-09-12T07:06:32.483Z,97014.83
2022-09-12T07:09:01.475Z,97022.73
2022-09-12T07:11:34.133Z,97022.02
2022-09-12T07:14:03.225Z,97024.22
2022-09-12T07:16:32.943Z,97026.12
2022-09-12T07:19:01.891Z,97026.09
2022-09-12T07:21:30.098Z,97029.58
2022-09-12T07:23:58.841Z,97027.46
2022-09-12T07:26:27.810Z,97032.38
2022-09-12T07:29:12.888Z,97030.77
2022-09-12T07:31:45.460Z,97022.91
2022-09-12T07:34:14.143Z,97026.42
2022-09-12T07:36:42.013Z,97030.77
2022-09-12T07:39:09.775Z,97030.98
2022-09-12T07:41:37.648Z,97030.66
2022-09-12T07:44:07.243Z,97033.33
2022-09-12T07:46:35.978Z,97040.38
2022-09-12T07:49:03.779Z,97040.25
2022-09-12T07:51:32.083Z,97038.41
2022-09-12T07:53:59.949Z,97034.40
2022-09-12T07:56:31.192Z,97036.70
2022-09-12T07:59:01.112Z,97035.70
2022-09-12T08:01:30.042Z,97034.61
2022-09-12T08:03:59.305Z,97033.33
2022-09-12T08:06:28.098Z,97040.09
2022-09-12T08:08:57.659Z,97039.44
2022-09-12T08:11:28.133Z,97034.00
2022-09-12T08:13:57.750Z,97033.73
2022-09-12T08:16:27.142Z,97030.80
2022-09-12T08:18:55.517Z,97029.41
2022-09-12T08:21:24.620Z,97027.75
2022-09-12T08:23:56.429Z,97034.02
2022-09-12T08:26:25.024Z,97028.70
2022-09-12T08:28:53.852Z,97023.10
2022-09-12T08:31:23.075Z,97023.04
2022-09-12T08:33:51.942Z,97024.33
2022-09-12T08:36:21.576Z,97026.44
2022-09-12T08:38:59.302Z,97020.81
2022-09-12T08:41:35.117Z,97020.61
2022-09-12T08:44:21.770Z,97020.14
2022-09-12T08:47:11.231Z,97017.83
2022-09-12T08:49:48.454Z,97017.10
2022-09-12T08:52:21.503Z,97018.55
2022-09-12T08:54:50.749Z,97018.50
2022-09-12T08:57:19.338Z,97013.30
2022-09-12T08:59:48.537Z,97017.16
2022-09-12T09:02:27.201Z,97016.95
2022-09-12T09:05:07.374Z,97014.70
2022-09-12T09:07:53.375Z,97008.42
2022-09-12T09:10:33.369Z,97005.48
2022-09-12T09:13:12.132Z,97003.52
2022-09-12T09:16:02.112Z,97008.77
2022-09-12T09:18:33.108Z,97011.56
2022-09-12T09:21:16.745Z,97013.13
2022-09-12T09:23:46.775Z,97013.09
2022-09-12T09:26:29.783Z,97017.34
2022-09-12T09:29:00.070Z,97012.84
2022-09-12T09:31:31.104Z,97008.98
2022-09-12T09:34:00.173Z,97008.96
2022-09-12T09:36:40.200Z,97012.77
2022-09-12T09:39:13.905Z,97010.80
2022-09-12T09:42:07.310Z,97013.55
2022-09-12T09:44:35.347Z,97018.21
2022-09-12T09:47:03.205Z,97026.70
2022-09-12T09:49:35.271Z,97026.18
2022-09-12T09:52:06.190Z,97026.04
2022-09-12T09:54:34.189Z,97023.70
2022-09-12T09:57:02.088Z,97022.42
2022-09-12T09:59:31.995Z,97020.47
2022-09-12T10:02:04.031Z,97015.92
2022-09-12T10:04:41.086Z,97020.66
2022-09-12T10:07:18.952Z,97017.60
2022-09-12T10:10:07.177Z,97017.26
2022-09-12T10:12:35.330Z,97017.60
2022-09-12T10:15:16.151Z,97027.59
2022-09-12T10:17:44.743Z,97025.38
2022-09-12T10:20:32.271Z,97025.98
2022-09-12T10:23:01.315Z,97024.52
2022-09-12T10:25:29.191Z,97020.52
2022-09-12T10:28:01.045Z,97023.70
2022-09-12T10:30:29.213Z,97028.64
2022-09-12T10:33:05.071Z,97020.05
2022-09-12T10:35:43.894Z,97019.00
2022-09-12T10:38:34.914Z,97020.70
2022-09-12T10:41:07.792Z,97016.66
2022-09-12T10:43:37.508Z,97024.56
2022-09-12T10:46:12.225Z,97023.73
2022-09-12T10:48:40.375Z,97024.83
2022-09-12T10:51:15.535Z,97024.88
2022-09-12T10:53:45.735Z,97029.08
2022-09-12T10:56:13.730Z,97028.30
2022-09-12T10:58:41.597Z,97026.16
2022-09-12T11:01:42.071Z,97029.62
2022-09-12T11:04:25.151Z,97038.00
2022-09-12T11:07:06.945Z,97035.27
2022-09-12T11:09:45.461Z,97027.89
2022-09-12T11:12:13.542Z,97032.67
2022-09-12T11:14:47.238Z,97038.42
2022-09-12T11:17:17.258Z,97037.21
2022-09-12T11:19:51.266Z,97030.34
2022-09-12T11:22:34.155Z,97027.52
2022-09-12T11:25:12.913Z,97038.59
2022-09-12T11:28:04.742Z,97036.48
2022-09-12T11:30:38.080Z,97035.69
2022-09-12T11:33:29.663Z,97033.53
2022-09-12T11:35:57.934Z,97035.70
2022-09-12T11:38:25.659Z,97037.95
2022-09-12T11:40:57.050Z,97035.70
2022-09-12T11:43:43.344Z,97035.55
2022-09-12T11:46:11.294Z,97032.70
2022-09-12T11:48:42.974Z,97036.95
2022-09-12T11:51:23.976Z,97042.85
2022-09-12T11:53:59.904Z,97041.25
2022-09-12T11:56:27.872Z,97042.02
2022-09-12T11:59:03.164Z,97035.27
2022-09-12T12:01:48.203Z,97041.77
2022-09-12T12:04:18.207Z,97040.64
2022-09-12T12:06:52.693Z,97037.86
2022-09-12T12:09:21.225Z,97032.84
2022-09-12T12:11:53.170Z,97029.95
2022-09-12T12:14:24.011Z,97037.52
2022-09-12T12:16:52.291Z,97030.61
2022-09-12T12:19:32.953Z,97029.73
2022-09-12T12:22:06.884Z,97029.61
2022-09-12T12:24:34.833Z,97034.21
2022-09-12T12:27:23.176Z,97033.40
2022-09-12T12:29:51.557Z,97028.48
2022-09-12T12:32:20.958Z,97032.23
2022-09-12T12:34:48.931Z,97036.83
2022-09-12T12:37:21.085Z,97034.03
2022-09-12T12:39:52.090Z,97032.58
2022-09-12T12:42:46.536Z,97035.61
2022-09-12T12:45:17.983Z,97033.31
2022-09-12T12:47:47.759Z,97034.38
2022-09-12T12:50:21.700Z,97034.21
2022-09-12T12:52:59.033Z,97036.38
2022-09-12T12:55:29.532Z,97039.58
2022-09-12T12:57:58.049Z,97035.63
2022-09-12T13:00:29.987Z,97035.33
2022-09-12T13:03:04.413Z,97031.73
2022-09-12T13:05:42.950Z,97031.49
2022-09-12T13:08:26.662Z,97026.05
2022-09-12T13:10:58.106Z,97026.17
2022-09-12T13:13:29.053Z,97023.86
2022-09-12T13:15:56.957Z,97023.19
2022-09-12T13:18:27.939Z,97026.84
2022-09-12T13:21:01.359Z,97024.06
2022-09-12T13:23:30.615Z,97021.34
2022-09-12T13:26:00.689Z,97025.45
2022-09-12T13:28:30.307Z,97027.55
2022-09-12T13:31:01.368Z,97028.45
2022-09-12T13:33:36.342Z,97029.90
2022-09-12T13:36:23.065Z,97029.77
2022-09-12T13:39:09.063Z,97029.25
2022-09-12T13:41:45.919Z,97034.73
2022-09-12T13:44:16.613Z,97035.69
2022-09-12T13:46:45.024Z,97029.10
2022-09-12T13:49:22.833Z,97026.91
2022-09-12T13:52:14.986Z,97033.55
2022-09-12T13:54:44.862Z,97036.77
2022-09-12T13:57:48.146Z,97032.73
2022-09-12T14:00:19.865Z,97033.79
2022-09-12T14:02:48.652Z,97034.80
2022-09-12T14:05:22.280Z,97036.41
2022-09-12T14:07:58.426Z,97027.83
2022-09-12T14:10:33.334Z,97028.59
2022-09-12T14:13:03.148Z,97028.20
2022-09-12T14:15:32.659Z,97027.10
2022-09-12T14:18:02.079Z,97026.30
2022-09-12T14:20:32.651Z,97022.91
2022-09-12T14:23:02.908Z,97023.09
2022-09-12T14:25:37.350Z,97026.88
2022-09-12T14:28:06.215Z,97031.42
2022-09-12T14:30:37.448Z,97024.34
2022-09-12T14:33:05.552Z,97019.13
2022-09-12T14:35:33.615Z,97014.48
2022-09-12T14:38:16.731Z,97014.27
2022-09-12T14:40:46.236Z,97015.48
2022-09-12T14:43:20.245Z,97016.92
2022-09-12T14:46:06.595Z,97017.95
2022-09-12T14:48:36.588Z,97014.48
2022-09-12T14:51:05.411Z,97011.68
2022-09-12T14:53:34.809Z,97013.80
2022-09-12T14:56:06.317Z,97013.90
2022-09-12T14:58:34.487Z,97017.97
2022-09-12T15:01:08.383Z,97015.77
2022-09-12T15:03:46.006Z,97014.20
2022-09-12T15:06:30.779Z,97010.54
2022-09-12T15:09:00.772Z,97011.70
2022-09-12T15:11:29.048Z,97012.16
2022-09-12T15:13:56.917Z,97013.09
2022-09-12T15:16:25.074Z,97011.19
2022-09-12T15:18:53.056Z,97011.71
2022-09-12T15:21:21.337Z,97013.25
2022-09-12T15:23:50.125Z,97017.67
2022-09-12T15:26:22.803Z,97020.21
2022-09-12T15:28:51.015Z,97021.23
2022-09-12T15:31:24.690Z,97023.20
2022-09-12T15:33:53.250Z,97023.45
2022-09-12T15:36:22.026Z,97022.11
2022-09-12T15:38:50.643Z,97020.94
2022-09-12T15:41:23.523Z,97021.09
2022-09-12T15:43:51.396Z,97021.70
2022-09-12T15:46:20.315Z,97016.30
2022-09-12T15:48:48.358Z,97017.52
2022-09-12T15:51:20.343Z,97019.30
2022-09-12T15:53:49.123Z,97021.59
2022-09-12T15:56:18.311Z,97025.17
2022-09-12T15:58:58.374Z,97025.30
2022-09-12T16:01:27.733Z,97024.48
2022-09-12T16:03:56.051Z,97018.89
2022-09-12T16:06:24.084Z,97019.08
2022-09-12T16:08:51.907Z,97024.85
2022-09-12T16:11:26.743Z,97025.11
2022-09-12T16:13:55.289Z,97026.18
2022-09-12T16:16:23.210Z,97027.17
2022-09-12T16:18:51.229Z,97028.39
2022-09-12T16:21:19.401Z,97029.37
2022-09-12T16:23:47.893Z,97028.54
2022-09-12T16:26:16.472Z,97032.91
2022-09-12T16:28:44.852Z,97033.79
2022-09-12T16:31:14.618Z,97036.61
2022-09-12T16:33:42.657Z,97038.12
2022-09-12T16:36:11.693Z,97035.27
2022-09-12T16:38:43.587Z,97034.95
2022-09-12T16:41:11.964Z,97035.52
2022-09-12T16:43:40.764Z,97035.12
2022-09-12T16:46:08.620Z,97037.49
2022-09-12T16:48:37.942Z,97039.36
2022-09-12T16:51:07.530Z,97040.27
2022-09-12T16:53:37.156Z,97044.24
2022-09-12T16:56:06.031Z,97050.17
2022-09-12T16:58:38.489Z,97048.30
2022-09-12T17:01:10.469Z,97051.20
2022-09-12T17:03:38.642Z,97049.48
2022-09-12T17:06:08.594Z,97047.73
2022-09-12T17:08:38.178Z,97048.31
2022-09-12T17:11:07.581Z,97054.86
2022-09-12T17:13:53.308Z,97057.89
2022-09-12T17:16:23.958Z,97056.80
2022-09-12T17:18:52.767Z,97056.59
2022-09-12T17:21:21.193Z,97060.44
2022-09-12T17:23:49.376Z,97061.02
2022-09-12T17:26:17.225Z,97064.58
2022-09-12T17:28:45.189Z,97065.48
2022-09-12T17:31:14.579Z,97061.70
2022-09-12T17:33:43.091Z,97060.17
2022-09-12T17:36:15.149Z,97058.94
2022-09-12T17:38:44.036Z,97062.11
2022-09-12T17:41:17.934Z,97062.09
2022-09-12T17:43:56.670Z,97063.65
2022-09-12T17:46:26.011Z,97063.65
2022-09-12T17:48:54.951Z,97066.24
2022-09-12T17:51:25.088Z,97063.92
2022-09-12T17:54:04.522Z,97067.34
2022-09-12T17:56:33.502Z,97070.42
2022-09-12T17:59:01.995Z,97070.45
2022-09-12T18:01:48.662Z,97070.98
2022-09-12T18:04:17.482Z,97077.81
2022-09-12T18:06:48.212Z,97090.05
2022-09-12T18:09:18.132Z,97095.58
2022-09-12T18:11:46.412Z,97093.08
2022-09-12T18:14:14.793Z,97096.02
2022-09-12T18:16:43.439Z,97100.45
2022-09-12T18:19:12.366Z,97102.47
2022-09-12T18:21:40.437Z,97108.11
2022-09-12T18:24:09.236Z,97108.42
2022-09-12T18:26:37.042Z,97108.67
2022-09-12T18:29:04.918Z,97110.73
2022-09-12T18:31:34.084Z,97111.55
2022-09-12T18:34:02.815Z,97116.61
2022-09-12T18:36:31.123Z,97120.58
2022-09-12T18:38:59.715Z,97122.37
2022-09-12T18:41:29.097Z,97127.72
2022-09-12T18:43:58.002Z,97127.53
2022-09-12T18:46:27.188Z,97129.02
2022-09-12T18:48:57.754Z,97130.92
2022-09-12T18:51:31.409Z,97135.31
2022-09-12T18:54:00.733Z,97137.20
2022-09-12T18:56:32.911Z,97136.83
2022-09-12T18:59:01.695Z,97137.85
2022-09-12T19:01:30.925Z,97141.58
2022-09-12T19:04:00.917Z,97146.49
2022-09-12T19:06:30.127Z,97148.13
2022-09-12T19:09:00.162Z,97143.13
2022-09-12T19:11:30.001Z,97138.77
2022-09-12T19:13:57.807Z,97138.76
2022-09-12T19:16:26.987Z,97138.36
2022-09-12T19:18:55.408Z,97135.66
2022-09-12T19:21:25.206Z,97138.98
2022-09-12T19:23:56.104Z,97141.16
2022-09-12T19:26:24.204Z,97143.82
2022-09-12T19:28:53.404Z,97146.34
2022-09-12T19:31:23.285Z,97145.21
2022-09-12T19:33:52.528Z,97143.34
2022-09-12T19:36:43.712Z,97146.63
2022-09-12T19:39:09.487Z,97140.46
2022-09-12T19:41:37.422Z,97140.63
2022-09-12T19:44:05.638Z,97143.58
2022-09-12T19:46:33.753Z,97142.77
2022-09-12T19:49:01.841Z,97138.45
2022-09-12T19:51:29.730Z,97143.81
2022-09-12T19:53:57.544Z,97148.15
2022-09-12T19:56:25.338Z,97147.33
2022-09-12T19:58:56.317Z,97142.72
2022-09-12T20:01:29.747Z,97143.51
2022-09-12T20:03:58.376Z,97145.52
2022-09-12T20:06:27.389Z,97141.61
2022-09-12T20:08:55.760Z,97138.55
2022-09-12T20:11:24.095Z,97137.73
2022-09-12T20:13:52.527Z,97138.63
2022-09-12T20:16:22.878Z,97145.23
2022-09-12T20:18:58.846Z,97145.59
2022-09-12T20:21:31.654Z,97149.20
2022-09-12T20:24:03.219Z,97148.38
2022-09-12T20:26:31.756Z,97149.95
2022-09-12T20:28:59.970Z,97152.39
2022-09-12T20:31:28.476Z,97154.33
2022-09-12T20:33:56.427Z,97149.08
2022-09-12T20:36:25.157Z,97151.77
2022-09-12T20:38:56.943Z,97148.22
2022-09-12T20:41:26.169Z,97145.13
2022-09-12T20:43:55.089Z,97146.61
2022-09-12T20:46:23.563Z,97148.56
2022-09-12T20:48:52.022Z,97148.31
2022-09-12T20:51:20.456Z,97152.27
2022-09-12T20:53:48.659Z,97154.91
2022-09-12T20:56:16.614Z,97152.43
2022-09-12T20:58:44.914Z,97153.36
2022-09-12T21:01:14.229Z,97151.27
2022-09-12T21:03:43.091Z,97149.10
2022-09-12T21:06:12.732Z,97151.26
2022-09-12T21:08:40.647Z,97152.09
2022-09-12T21:11:09.147Z,97154.27
2022-09-12T21:13:37.598Z,97155.40
2022-09-12T21:16:07.403Z,97155.10
2022-09-12T21:18:36.057Z,97158.10
2022-09-12T21:21:05.365Z,97158.58
2022-09-12T21:23:33.780Z,97153.98
2022-09-12T21:26:02.589Z,97156.67
2022-09-12T21:28:31.109Z,97157.95
2022-09-12T21:30:59.112Z,97160.96
2022-09-12T21:33:27.865Z,97161.08
2022-09-12T21:35:56.248Z,97162.52
2022-09-12T21:38:24.070Z,97158.64
2022-09-12T21:40:51.913Z,97157.59
2022-09-12T21:43:19.847Z,97158.79
2022-09-12T21:45:48.585Z,97155.32
2022-09-12T21:48:16.479Z,97152.35
2022-09-12T21:50:49.493Z,97150.02
2022-09-12T21:53:17.461Z,97147.60
2022-09-12T21:55:45.425Z,97146.58
2022-09-12T21:58:13.400Z,97144.32
2022-09-12T22:00:41.923Z,97141.54
2022-09-12T22:03:10.568Z,97138.95
2022-09-12T22:05:40.430Z,97135.94
2022-09-12T22:08:08.350Z,97134.65
2022-09-12T22:10:37.331Z,97130.35
2022-09-12T22:13:05.754Z,97126.92
2022-09-12T22:15:40.471Z,97127.78
2022-09-12T22:18:09.089Z,97123.82
2022-09-12T22:20:36.903Z,97119.54
2022-09-12T22:23:25.060Z,97116.63
2022-09-12T22:25:54.563Z,97115.06
2022-09-12T22:28:22.830Z,97116.05
2022-09-12T22:30:50.842Z,97116.11
2022-09-12T22:33:18.768Z,97118.77
2022-09-12T22:35:46.817Z,97120.88
2022-09-12T22:38:14.707Z,97120.75
2022-09-12T22:40:43.086Z,97121.95
2022-09-12T22:43:11.670Z,97118.15
2022-09-12T22:45:42.506Z,97114.14
2022-09-12T22:48:10.466Z,97113.83
2022-09-12T22:50:38.529Z,97113.27
2022-09-12T22:53:06.621Z,97109.58
2022-09-12T22:55:34.593Z,97108.23
2022-09-12T22:58:03.994Z,97107.98
2022-09-12T23:00:32.075Z,97105.05
2022-09-12T23:03:00.107Z,97098.63
2022-09-12T23:05:28.620Z,97096.73
2022-09-12T23:07:56.485Z,97095.83
2022-09-12T23:10:26.197Z,97096.02
2022-09-12T23:12:55.557Z,97096.64
2022-09-12T23:15:23.433Z,97094.75
2022-09-12T23:17:51.651Z,97095.63
2022-09-12T23:20:19.713Z,97092.06
2022-09-12T23:22:47.622Z,97095.04
2022-09-12T23:25:16.063Z,97091.42
2022-09-12T23:27:44.236Z,97085.89
2022-09-12T23:30:12.304Z,97085.15
2022-09-12T23:32:40.065Z,97083.20
2022-09-12T23:35:08.149Z,97081.84
2022-09-12T23:37:36.218Z,97080.89
2022-09-12T23:40:04.420Z,97085.65
2022-09-12T23:42:32.363Z,97084.09
2022-09-12T23:45:00.535Z,97084.40
2022-09-12T23:47:28.454Z,97082.35
2022-09-12T23:49:56.376Z,97078.90
2022-09-12T23:52:24.244Z,97078.56
2022-09-12T23:54:52.053Z,97077.05
2022-09-12T23:57:20.282Z,97077.11
2022-09-12T23:59:48.263Z,97077.55
